sensor_id;sensor_type;location;lat;lon;timestamp;temperature;humidity
9389;DHT22;4734;52.778;6.798;2022-12-07T00:00:32;5.00;99.90
9389;DHT22;4734;52.778;6.798;2022-12-07T00:03:18;5.00;99.90
9389;DHT22;4734;52.778;6.798;2022-12-07T00:06:05;5.00;99.90
9389;DHT22;4734;52.778;6.798;2022-12-07T00:08:54;4.90;99.90
9389;DHT22;4734;52.778;6.798;2022-12-07T00:11:40;4.90;99.90
9389;DHT22;4734;52.778;6.798;2022-12-07T00:14:25;4.90;99.90
9389;DHT22;4734;52.778;6.798;2022-12-07T00:17:11;4.90;99.90
9389;DHT22;4734;52.778;6.798;2022-12-07T00:19:58;4.80;99.90
9389;DHT22;4734;52.778;6.798;2022-12-07T00:22:43;4.80;99.90
9389;DHT22;4734;52.778;6.798;2022-12-07T00:25:30;4.80;99.90
9389;DHT22;4734;52.778;6.798;2022-12-07T00:28:16;4.80;99.90
9389;DHT22;4734;52.778;6.798;2022-12-07T00:31:03;4.70;99.90
9389;DHT22;4734;52.778;6.798;2022-12-07T00:33:49;4.70;99.90
9389;DHT22;4734;52.778;6.798;2022-12-07T00:36:35;4.60;99.90
9389;DHT22;4734;52.778;6.798;2022-12-07T00:39:21;4.70;99.90
9389;DHT22;4734;52.778;6.798;2022-12-07T00:42:06;4.60;99.90
9389;DHT22;4734;52.778;6.798;2022-12-07T00:44:51;4.60;99.90
9389;DHT22;4734;52.778;6.798;2022-12-07T00:47:37;4.60;99.90
9389;DHT22;4734;52.778;6.798;2022-12-07T00:50:22;4.60;99.90
9389;DHT22;4734;52.778;6.798;2022-12-07T00:53:09;4.50;99.90
9389;DHT22;4734;52.778;6.798;2022-12-07T00:55:55;4.50;99.90
9389;DHT22;4734;52.778;6.798;2022-12-07T00:58:40;4.50;99.90
9389;DHT22;4734;52.778;6.798;2022-12-07T01:01:29;4.50;99.90
9389;DHT22;4734;52.778;6.798;2022-12-07T01:04:15;4.50;99.90
9389;DHT22;4734;52.778;6.798;2022-12-07T01:07:00;4.40;99.90
9389;DHT22;4734;52.778;6.798;2022-12-07T01:09:47;4.40;99.90
9389;DHT22;4734;52.778;6.798;2022-12-07T01:12:32;4.40;99.90
9389;DHT22;4734;52.778;6.798;2022-12-07T01:15:18;4.40;99.90
9389;DHT22;4734;52.778;6.798;2022-12-07T01:18:04;4.40;99.90
9389;DHT22;4734;52.778;6.798;2022-12-07T01:20:57;4.40;99.90
9389;DHT22;4734;52.778;6.798;2022-12-07T01:23:43;4.30;99.90
9389;DHT22;4734;52.778;6.798;2022-12-07T01:26:30;4.30;99.90
9389;DHT22;4734;52.778;6.798;2022-12-07T01:29:16;4.30;99.90
9389;DHT22;4734;52.778;6.798;2022-12-07T01:32:02;4.30;99.90
9389;DHT22;4734;52.778;6.798;2022-12-07T01:34:48;4.30;99.90
9389;DHT22;4734;52.778;6.798;2022-12-07T01:37:37;4.30;99.90
9389;DHT22;4734;52.778;6.798;2022-12-07T01:40:22;4.30;99.90
9389;DHT22;4734;52.778;6.798;2022-12-07T01:43:15;4.20;99.90
9389;DHT22;4734;52.778;6.798;2022-12-07T01:46:02;4.20;99.90
9389;DHT22;4734;52.778;6.798;2022-12-07T01:48:48;4.20;99.90
9389;DHT22;4734;52.778;6.798;2022-12-07T01:51:34;4.20;99.90
9389;DHT22;4734;52.778;6.798;2022-12-07T01:54:20;4.20;99.90
9389;DHT22;4734;52.778;6.798;2022-12-07T01:57:08;4.20;99.90
9389;DHT22;4734;52.778;6.798;2022-12-07T01:59:55;4.20;99.90
9389;DHT22;4734;52.778;6.798;2022-12-07T02:02:45;4.10;99.90
9389;DHT22;4734;52.778;6.798;2022-12-07T02:05:32;4.10;99.90
9389;DHT22;4734;52.778;6.798;2022-12-07T02:08:20;4.20;99.90
9389;DHT22;4734;52.778;6.798;2022-12-07T02:11:07;4.10;99.90
9389;DHT22;4734;52.778;6.798;2022-12-07T02:13:53;4.10;99.90
9389;DHT22;4734;52.778;6.798;2022-12-07T02:16:49;4.10;99.90
9389;DHT22;4734;52.778;6.798;2022-12-07T02:23:39;4.10;99.90
9389;DHT22;4734;52.778;6.798;2022-12-07T02:30:01;4.10;99.90
9389;DHT22;4734;52.778;6.798;2022-12-07T02:32:53;4.10;99.90
9389;DHT22;4734;52.778;6.798;2022-12-07T02:35:44;4.10;99.90
9389;DHT22;4734;52.778;6.798;2022-12-07T02:38:36;4.10;99.90
9389;DHT22;4734;52.778;6.798;2022-12-07T02:41:27;4.10;99.90
9389;DHT22;4734;52.778;6.798;2022-12-07T02:44:16;4.10;99.90
9389;DHT22;4734;52.778;6.798;2022-12-07T02:47:07;4.10;99.90
9389;DHT22;4734;52.778;6.798;2022-12-07T02:49:54;4.10;99.90
9389;DHT22;4734;52.778;6.798;2022-12-07T02:52:40;4.10;99.90
9389;DHT22;4734;52.778;6.798;2022-12-07T02:55:29;4.20;99.90
9389;DHT22;4734;52.778;6.798;2022-12-07T02:58:30;4.10;99.90
9389;DHT22;4734;52.778;6.798;2022-12-07T03:01:25;4.20;99.90
9389;DHT22;4734;52.778;6.798;2022-12-07T03:04:27;4.20;99.90
9389;DHT22;4734;52.778;6.798;2022-12-07T03:07:24;4.20;99.90
9389;DHT22;4734;52.778;6.798;2022-12-07T03:10:16;4.10;99.90
9389;DHT22;4734;52.778;6.798;2022-12-07T03:13:07;4.10;99.90
9389;DHT22;4734;52.778;6.798;2022-12-07T03:15:59;4.10;99.90
9389;DHT22;4734;52.778;6.798;2022-12-07T03:18:50;4.10;99.90
9389;DHT22;4734;52.778;6.798;2022-12-07T03:21:40;4.10;99.90
9389;DHT22;4734;52.778;6.798;2022-12-07T03:24:29;4.10;99.90
9389;DHT22;4734;52.778;6.798;2022-12-07T03:27:18;4.10;99.90
9389;DHT22;4734;52.778;6.798;2022-12-07T03:30:08;4.10;99.90
9389;DHT22;4734;52.778;6.798;2022-12-07T03:32:59;4.10;99.90
9389;DHT22;4734;52.778;6.798;2022-12-07T03:35:49;4.10;99.90
9389;DHT22;4734;52.778;6.798;2022-12-07T03:38:41;4.10;99.90
9389;DHT22;4734;52.778;6.798;2022-12-07T03:41:30;4.10;99.90
9389;DHT22;4734;52.778;6.798;2022-12-07T03:44:17;4.10;99.90
9389;DHT22;4734;52.778;6.798;2022-12-07T03:47:05;4.00;99.90
9389;DHT22;4734;52.778;6.798;2022-12-07T03:49:55;4.00;99.90
9389;DHT22;4734;52.778;6.798;2022-12-07T03:52:43;4.00;99.90
9389;DHT22;4734;52.778;6.798;2022-12-07T03:55:33;4.00;99.90
9389;DHT22;4734;52.778;6.798;2022-12-07T03:58:21;4.00;99.90
9389;DHT22;4734;52.778;6.798;2022-12-07T04:01:07;4.00;99.90
9389;DHT22;4734;52.778;6.798;2022-12-07T04:03:53;4.00;99.90
9389;DHT22;4734;52.778;6.798;2022-12-07T04:06:38;4.00;99.90
9389;DHT22;4734;52.778;6.798;2022-12-07T04:09:24;4.00;99.90
9389;DHT22;4734;52.778;6.798;2022-12-07T04:12:11;4.00;99.90
9389;DHT22;4734;52.778;6.798;2022-12-07T04:14:56;4.00;99.90
9389;DHT22;4734;52.778;6.798;2022-12-07T04:17:42;4.00;99.90
9389;DHT22;4734;52.778;6.798;2022-12-07T04:20:28;4.00;99.90
9389;DHT22;4734;52.778;6.798;2022-12-07T04:23:14;3.90;99.90
9389;DHT22;4734;52.778;6.798;2022-12-07T04:25:59;3.90;99.90
9389;DHT22;4734;52.778;6.798;2022-12-07T04:28:46;3.90;99.90
9389;DHT22;4734;52.778;6.798;2022-12-07T04:31:31;3.90;99.90
9389;DHT22;4734;52.778;6.798;2022-12-07T04:34:17;3.90;99.90
9389;DHT22;4734;52.778;6.798;2022-12-07T04:37:03;3.80;99.90
9389;DHT22;4734;52.778;6.798;2022-12-07T04:39:49;3.80;99.90
9389;DHT22;4734;52.778;6.798;2022-12-07T04:42:34;3.80;99.90
9389;DHT22;4734;52.778;6.798;2022-12-07T04:45:21;3.80;99.90
9389;DHT22;4734;52.778;6.798;2022-12-07T04:48:06;3.80;99.90
9389;DHT22;4734;52.778;6.798;2022-12-07T04:50:52;3.80;99.90
9389;DHT22;4734;52.778;6.798;2022-12-07T04:53:37;3.80;99.90
9389;DHT22;4734;52.778;6.798;2022-12-07T04:56:24;3.80;99.90
9389;DHT22;4734;52.778;6.798;2022-12-07T04:59:10;3.80;99.90
9389;DHT22;4734;52.778;6.798;2022-12-07T05:01:57;3.80;99.90
9389;DHT22;4734;52.778;6.798;2022-12-07T05:04:42;3.70;99.90
9389;DHT22;4734;52.778;6.798;2022-12-07T05:07:28;3.70;99.90
9389;DHT22;4734;52.778;6.798;2022-12-07T05:10:14;3.70;99.90
9389;DHT22;4734;52.778;6.798;2022-12-07T05:12:59;3.70;99.90
9389;DHT22;4734;52.778;6.798;2022-12-07T05:15:46;3.70;99.90
9389;DHT22;4734;52.778;6.798;2022-12-07T05:18:32;3.70;99.90
9389;DHT22;4734;52.778;6.798;2022-12-07T05:21:18;3.60;99.90
9389;DHT22;4734;52.778;6.798;2022-12-07T05:24:04;3.70;99.90
9389;DHT22;4734;52.778;6.798;2022-12-07T05:26:51;3.60;99.90
9389;DHT22;4734;52.778;6.798;2022-12-07T05:29:36;3.60;99.90
9389;DHT22;4734;52.778;6.798;2022-12-07T05:32:22;3.60;99.90
9389;DHT22;4734;52.778;6.798;2022-12-07T05:35:10;3.60;99.90
9389;DHT22;4734;52.778;6.798;2022-12-07T05:37:55;3.60;99.90
9389;DHT22;4734;52.778;6.798;2022-12-07T05:40:41;3.60;99.90
9389;DHT22;4734;52.778;6.798;2022-12-07T05:43:26;3.60;99.90
9389;DHT22;4734;52.778;6.798;2022-12-07T05:46:12;3.60;99.90
9389;DHT22;4734;52.778;6.798;2022-12-07T05:48:57;3.60;99.90
9389;DHT22;4734;52.778;6.798;2022-12-07T05:51:44;3.60;99.90
9389;DHT22;4734;52.778;6.798;2022-12-07T05:54:30;3.60;99.90
9389;DHT22;4734;52.778;6.798;2022-12-07T05:57:16;3.60;99.90
9389;DHT22;4734;52.778;6.798;2022-12-07T06:00:01;3.60;99.90
9389;DHT22;4734;52.778;6.798;2022-12-07T06:02:46;3.60;99.90
9389;DHT22;4734;52.778;6.798;2022-12-07T06:05:32;3.60;99.90
9389;DHT22;4734;52.778;6.798;2022-12-07T06:08:19;3.60;99.90
9389;DHT22;4734;52.778;6.798;2022-12-07T06:11:05;3.60;99.90
9389;DHT22;4734;52.778;6.798;2022-12-07T06:14:08;3.60;99.90
9389;DHT22;4734;52.778;6.798;2022-12-07T06:16:53;3.60;99.90
9389;DHT22;4734;52.778;6.798;2022-12-07T06:19:39;3.60;99.90
9389;DHT22;4734;52.778;6.798;2022-12-07T06:22:24;3.60;99.90
9389;DHT22;4734;52.778;6.798;2022-12-07T06:25:11;3.60;99.90
9389;DHT22;4734;52.778;6.798;2022-12-07T06:27:57;3.60;99.90
9389;DHT22;4734;52.778;6.798;2022-12-07T06:30:43;3.60;99.90
9389;DHT22;4734;52.778;6.798;2022-12-07T06:33:29;3.60;99.90
9389;DHT22;4734;52.778;6.798;2022-12-07T06:36:14;3.60;99.90
9389;DHT22;4734;52.778;6.798;2022-12-07T06:39:00;3.60;99.90
9389;DHT22;4734;52.778;6.798;2022-12-07T06:41:46;3.60;99.90
9389;DHT22;4734;52.778;6.798;2022-12-07T06:44:32;3.60;99.90
9389;DHT22;4734;52.778;6.798;2022-12-07T06:47:17;3.60;99.90
9389;DHT22;4734;52.778;6.798;2022-12-07T06:50:04;3.60;99.90
9389;DHT22;4734;52.778;6.798;2022-12-07T06:52:51;3.60;99.90
9389;DHT22;4734;52.778;6.798;2022-12-07T06:55:36;3.60;99.90
9389;DHT22;4734;52.778;6.798;2022-12-07T06:58:23;3.60;99.90
9389;DHT22;4734;52.778;6.798;2022-12-07T07:01:09;3.60;99.90
9389;DHT22;4734;52.778;6.798;2022-12-07T07:03:55;3.60;99.90
9389;DHT22;4734;52.778;6.798;2022-12-07T07:06:41;3.60;99.90
9389;DHT22;4734;52.778;6.798;2022-12-07T07:09:26;3.50;99.90
9389;DHT22;4734;52.778;6.798;2022-12-07T07:12:12;3.50;99.90
9389;DHT22;4734;52.778;6.798;2022-12-07T07:14:59;3.50;99.90
9389;DHT22;4734;52.778;6.798;2022-12-07T07:17:44;3.50;99.90
9389;DHT22;4734;52.778;6.798;2022-12-07T07:20:30;3.50;99.90
9389;DHT22;4734;52.778;6.798;2022-12-07T07:23:16;3.50;99.90
9389;DHT22;4734;52.778;6.798;2022-12-07T07:26:04;3.50;99.90
9389;DHT22;4734;52.778;6.798;2022-12-07T07:28:50;3.50;99.90
9389;DHT22;4734;52.778;6.798;2022-12-07T07:31:37;3.50;99.90
9389;DHT22;4734;52.778;6.798;2022-12-07T07:34:22;3.50;99.90
9389;DHT22;4734;52.778;6.798;2022-12-07T07:37:08;3.50;99.90
9389;DHT22;4734;52.778;6.798;2022-12-07T07:39:55;3.50;99.90
9389;DHT22;4734;52.778;6.798;2022-12-07T07:42:40;3.50;99.90
9389;DHT22;4734;52.778;6.798;2022-12-07T07:45:27;3.50;99.90
9389;DHT22;4734;52.778;6.798;2022-12-07T07:48:14;3.50;99.90
9389;DHT22;4734;52.778;6.798;2022-12-07T07:50:59;3.40;99.90
9389;DHT22;4734;52.778;6.798;2022-12-07T07:53:45;3.40;99.90
9389;DHT22;4734;52.778;6.798;2022-12-07T07:56:30;3.40;99.90
9389;DHT22;4734;52.778;6.798;2022-12-07T07:59:16;3.40;99.90
9389;DHT22;4734;52.778;6.798;2022-12-07T08:02:01;3.40;99.90
9389;DHT22;4734;52.778;6.798;2022-12-07T08:04:48;3.40;99.90
9389;DHT22;4734;52.778;6.798;2022-12-07T08:07:34;3.40;99.90
9389;DHT22;4734;52.778;6.798;2022-12-07T08:10:19;3.40;99.90
9389;DHT22;4734;52.778;6.798;2022-12-07T08:13:05;3.40;99.90
9389;DHT22;4734;52.778;6.798;2022-12-07T08:15:57;3.40;99.90
9389;DHT22;4734;52.778;6.798;2022-12-07T08:18:43;3.40;99.90
9389;DHT22;4734;52.778;6.798;2022-12-07T08:21:30;3.40;99.90
9389;DHT22;4734;52.778;6.798;2022-12-07T08:24:16;3.40;99.90
9389;DHT22;4734;52.778;6.798;2022-12-07T08:27:02;3.40;99.90
9389;DHT22;4734;52.778;6.798;2022-12-07T08:29:48;3.40;99.90
9389;DHT22;4734;52.778;6.798;2022-12-07T08:32:33;3.40;99.90
9389;DHT22;4734;52.778;6.798;2022-12-07T08:35:19;3.40;99.90
9389;DHT22;4734;52.778;6.798;2022-12-07T08:38:06;3.40;99.90
9389;DHT22;4734;52.778;6.798;2022-12-07T08:40:54;3.40;99.90
9389;DHT22;4734;52.778;6.798;2022-12-07T08:43:40;3.40;99.90
9389;DHT22;4734;52.778;6.798;2022-12-07T08:46:29;3.40;99.90
9389;DHT22;4734;52.778;6.798;2022-12-07T08:49:24;3.40;99.90
9389;DHT22;4734;52.778;6.798;2022-12-07T08:52:11;3.40;99.90
9389;DHT22;4734;52.778;6.798;2022-12-07T08:54:58;3.40;99.90
9389;DHT22;4734;52.778;6.798;2022-12-07T08:57:45;3.50;99.90
9389;DHT22;4734;52.778;6.798;2022-12-07T09:00:31;3.50;99.90
9389;DHT22;4734;52.778;6.798;2022-12-07T09:03:16;3.50;99.90
9389;DHT22;4734;52.778;6.798;2022-12-07T09:06:02;3.50;99.90
9389;DHT22;4734;52.778;6.798;2022-12-07T09:08:51;3.50;99.90
9389;DHT22;4734;52.778;6.798;2022-12-07T09:11:39;3.50;99.90
9389;DHT22;4734;52.778;6.798;2022-12-07T09:14:24;3.50;99.90
9389;DHT22;4734;52.778;6.798;2022-12-07T09:17:11;3.50;99.90
9389;DHT22;4734;52.778;6.798;2022-12-07T09:19:57;3.50;99.90
9389;DHT22;4734;52.778;6.798;2022-12-07T09:22:43;3.60;99.90
9389;DHT22;4734;52.778;6.798;2022-12-07T09:25:28;3.50;99.90
9389;DHT22;4734;52.778;6.798;2022-12-07T09:28:15;3.50;99.90
9389;DHT22;4734;52.778;6.798;2022-12-07T09:31:02;3.50;99.90
9389;DHT22;4734;52.778;6.798;2022-12-07T09:33:53;3.50;99.90
9389;DHT22;4734;52.778;6.798;2022-12-07T09:36:40;3.50;99.90
9389;DHT22;4734;52.778;6.798;2022-12-07T09:39:27;3.60;99.90
9389;DHT22;4734;52.778;6.798;2022-12-07T09:42:24;3.60;99.90
9389;DHT22;4734;52.778;6.798;2022-12-07T09:45:15;3.60;99.90
9389;DHT22;4734;52.778;6.798;2022-12-07T09:48:03;3.60;99.90
9389;DHT22;4734;52.778;6.798;2022-12-07T09:50:49;3.60;99.90
9389;DHT22;4734;52.778;6.798;2022-12-07T09:53:37;3.60;99.90
9389;DHT22;4734;52.778;6.798;2022-12-07T09:56:24;3.70;99.90
9389;DHT22;4734;52.778;6.798;2022-12-07T09:59:15;3.70;99.90
9389;DHT22;4734;52.778;6.798;2022-12-07T10:02:25;3.70;99.90
9389;DHT22;4734;52.778;6.798;2022-12-07T10:05:15;3.70;99.90
9389;DHT22;4734;52.778;6.798;2022-12-07T10:08:01;3.80;99.90
9389;DHT22;4734;52.778;6.798;2022-12-07T10:10:50;3.80;99.90
9389;DHT22;4734;52.778;6.798;2022-12-07T10:13:38;3.80;99.90
9389;DHT22;4734;52.778;6.798;2022-12-07T10:16:35;3.90;99.90
9389;DHT22;4734;52.778;6.798;2022-12-07T10:19:25;3.90;99.90
9389;DHT22;4734;52.778;6.798;2022-12-07T10:22:12;4.00;99.90
9389;DHT22;4734;52.778;6.798;2022-12-07T10:25:08;4.00;99.90
9389;DHT22;4734;52.778;6.798;2022-12-07T10:27:58;4.10;99.90
9389;DHT22;4734;52.778;6.798;2022-12-07T10:30:54;4.10;99.90
9389;DHT22;4734;52.778;6.798;2022-12-07T10:33:49;4.20;99.90
9389;DHT22;4734;52.778;6.798;2022-12-07T10:36:38;4.20;99.90
9389;DHT22;4734;52.778;6.798;2022-12-07T10:39:23;4.30;99.90
9389;DHT22;4734;52.778;6.798;2022-12-07T10:42:17;4.30;99.90
9389;DHT22;4734;52.778;6.798;2022-12-07T10:45:13;4.30;99.90
9389;DHT22;4734;52.778;6.798;2022-12-07T10:48:03;4.40;99.90
9389;DHT22;4734;52.778;6.798;2022-12-07T10:51:02;4.40;99.90
9389;DHT22;4734;52.778;6.798;2022-12-07T10:54:00;4.40;99.90
9389;DHT22;4734;52.778;6.798;2022-12-07T10:57:05;4.40;99.90
9389;DHT22;4734;52.778;6.798;2022-12-07T11:00:04;4.50;99.90
9389;DHT22;4734;52.778;6.798;2022-12-07T11:06:29;4.60;99.90
9389;DHT22;4734;52.778;6.798;2022-12-07T11:09:49;4.60;99.90
9389;DHT22;4734;52.778;6.798;2022-12-07T11:12:47;4.60;99.90
9389;DHT22;4734;52.778;6.798;2022-12-07T11:15:56;4.70;99.90
9389;DHT22;4734;52.778;6.798;2022-12-07T11:18:52;4.70;99.90
9389;DHT22;4734;52.778;6.798;2022-12-07T11:21:53;4.70;99.90
9389;DHT22;4734;52.778;6.798;2022-12-07T11:24:49;4.70;99.90
9389;DHT22;4734;52.778;6.798;2022-12-07T11:27:43;4.80;99.90
9389;DHT22;4734;52.778;6.798;2022-12-07T11:30:36;4.80;99.90
9389;DHT22;4734;52.778;6.798;2022-12-07T11:33:27;4.90;99.90
9389;DHT22;4734;52.778;6.798;2022-12-07T11:36:31;4.90;99.90
9389;DHT22;4734;52.778;6.798;2022-12-07T11:39:26;4.90;99.90
9389;DHT22;4734;52.778;6.798;2022-12-07T11:42:23;5.00;99.90
9389;DHT22;4734;52.778;6.798;2022-12-07T11:45:14;5.00;99.90
9389;DHT22;4734;52.778;6.798;2022-12-07T11:48:02;5.00;99.90
9389;DHT22;4734;52.778;6.798;2022-12-07T11:50:50;5.10;99.90
9389;DHT22;4734;52.778;6.798;2022-12-07T11:53:39;5.10;99.90
9389;DHT22;4734;52.778;6.798;2022-12-07T11:56:27;5.10;99.90
9389;DHT22;4734;52.778;6.798;2022-12-07T11:59:19;5.20;99.90
9389;DHT22;4734;52.778;6.798;2022-12-07T12:02:13;5.20;99.90
9389;DHT22;4734;52.778;6.798;2022-12-07T12:05:04;5.30;99.90
9389;DHT22;4734;52.778;6.798;2022-12-07T12:07:54;5.30;99.90
9389;DHT22;4734;52.778;6.798;2022-12-07T12:10:52;5.30;99.90
9389;DHT22;4734;52.778;6.798;2022-12-07T12:13:59;5.40;99.90
9389;DHT22;4734;52.778;6.798;2022-12-07T12:17:03;5.40;99.90
9389;DHT22;4734;52.778;6.798;2022-12-07T12:20:01;5.50;99.90
9389;DHT22;4734;52.778;6.798;2022-12-07T12:22:53;5.50;99.90
9389;DHT22;4734;52.778;6.798;2022-12-07T12:25:43;5.50;99.90
9389;DHT22;4734;52.778;6.798;2022-12-07T12:28:34;5.60;99.90
9389;DHT22;4734;52.778;6.798;2022-12-07T12:31:33;5.60;99.90
9389;DHT22;4734;52.778;6.798;2022-12-07T12:34:34;5.60;99.90
9389;DHT22;4734;52.778;6.798;2022-12-07T12:37:44;5.70;99.90
9389;DHT22;4734;52.778;6.798;2022-12-07T12:40:43;5.70;99.90
9389;DHT22;4734;52.778;6.798;2022-12-07T12:43:49;5.70;99.90
9389;DHT22;4734;52.778;6.798;2022-12-07T12:47:00;5.80;99.90
9389;DHT22;4734;52.778;6.798;2022-12-07T12:50:12;5.80;99.90
9389;DHT22;4734;52.778;6.798;2022-12-07T12:53:17;5.90;99.90
9389;DHT22;4734;52.778;6.798;2022-12-07T12:56:26;5.90;99.90
9389;DHT22;4734;52.778;6.798;2022-12-07T12:59:24;5.90;99.90
9389;DHT22;4734;52.778;6.798;2022-12-07T13:02:19;5.90;99.90
9389;DHT22;4734;52.778;6.798;2022-12-07T13:05:18;6.00;99.90
9389;DHT22;4734;52.778;6.798;2022-12-07T13:08:11;6.00;99.90
9389;DHT22;4734;52.778;6.798;2022-12-07T13:11:17;6.00;99.90
9389;DHT22;4734;52.778;6.798;2022-12-07T13:14:42;6.10;99.90
9389;DHT22;4734;52.778;6.798;2022-12-07T13:17:57;6.10;99.90
9389;DHT22;4734;52.778;6.798;2022-12-07T13:20:54;6.10;99.90
9389;DHT22;4734;52.778;6.798;2022-12-07T13:23:54;6.20;99.90
9389;DHT22;4734;52.778;6.798;2022-12-07T13:26:42;6.20;99.90
9389;DHT22;4734;52.778;6.798;2022-12-07T13:29:36;6.20;99.90
9389;DHT22;4734;52.778;6.798;2022-12-07T13:32:24;6.20;99.90
9389;DHT22;4734;52.778;6.798;2022-12-07T13:35:31;6.20;99.90
9389;DHT22;4734;52.778;6.798;2022-12-07T13:38:25;6.30;99.90
9389;DHT22;4734;52.778;6.798;2022-12-07T13:41:14;6.30;99.90
9389;DHT22;4734;52.778;6.798;2022-12-07T13:44:02;6.30;99.90
9389;DHT22;4734;52.778;6.798;2022-12-07T13:47:00;6.30;99.90
9389;DHT22;4734;52.778;6.798;2022-12-07T13:49:51;6.30;99.90
9389;DHT22;4734;52.778;6.798;2022-12-07T13:52:43;6.30;99.90
9389;DHT22;4734;52.778;6.798;2022-12-07T13:55:30;6.30;99.90
9389;DHT22;4734;52.778;6.798;2022-12-07T13:58:16;6.40;99.90
9389;DHT22;4734;52.778;6.798;2022-12-07T14:01:02;6.30;99.90
9389;DHT22;4734;52.778;6.798;2022-12-07T14:03:47;6.40;99.90
9389;DHT22;4734;52.778;6.798;2022-12-07T14:06:33;6.30;99.90
9389;DHT22;4734;52.778;6.798;2022-12-07T14:09:20;6.40;99.90
9389;DHT22;4734;52.778;6.798;2022-12-07T14:12:08;6.40;99.90
9389;DHT22;4734;52.778;6.798;2022-12-07T14:14:54;6.40;99.90
9389;DHT22;4734;52.778;6.798;2022-12-07T14:17:50;6.30;99.90
9389;DHT22;4734;52.778;6.798;2022-12-07T14:20:38;6.40;99.90
9389;DHT22;4734;52.778;6.798;2022-12-07T14:23:25;6.30;99.90
9389;DHT22;4734;52.778;6.798;2022-12-07T14:26:12;6.30;99.90
9389;DHT22;4734;52.778;6.798;2022-12-07T14:29:29;6.30;99.90
9389;DHT22;4734;52.778;6.798;2022-12-07T14:32:21;6.30;99.90
9389;DHT22;4734;52.778;6.798;2022-12-07T14:35:11;6.30;99.90
9389;DHT22;4734;52.778;6.798;2022-12-07T14:37:57;6.20;99.90
9389;DHT22;4734;52.778;6.798;2022-12-07T14:40:42;6.20;99.90
9389;DHT22;4734;52.778;6.798;2022-12-07T14:43:28;6.20;99.90
9389;DHT22;4734;52.778;6.798;2022-12-07T14:46:15;6.20;99.90
9389;DHT22;4734;52.778;6.798;2022-12-07T14:49:00;6.20;99.90
9389;DHT22;4734;52.778;6.798;2022-12-07T14:51:47;6.10;99.90
9389;DHT22;4734;52.778;6.798;2022-12-07T14:54:32;6.10;99.90
9389;DHT22;4734;52.778;6.798;2022-12-07T14:57:18;6.10;99.90
9389;DHT22;4734;52.778;6.798;2022-12-07T15:00:05;6.10;99.90
9389;DHT22;4734;52.778;6.798;2022-12-07T15:02:52;6.00;99.90
9389;DHT22;4734;52.778;6.798;2022-12-07T15:05:38;6.00;99.90
9389;DHT22;4734;52.778;6.798;2022-12-07T15:08:23;6.00;99.90
9389;DHT22;4734;52.778;6.798;2022-12-07T15:11:11;6.00;99.90
9389;DHT22;4734;52.778;6.798;2022-12-07T15:13:57;6.00;99.90
9389;DHT22;4734;52.778;6.798;2022-12-07T15:16:55;5.90;99.90
9389;DHT22;4734;52.778;6.798;2022-12-07T15:19:42;5.90;99.90
9389;DHT22;4734;52.778;6.798;2022-12-07T15:22:29;5.90;99.90
9389;DHT22;4734;52.778;6.798;2022-12-07T15:25:15;5.80;99.90
9389;DHT22;4734;52.778;6.798;2022-12-07T15:28:03;5.80;99.90
9389;DHT22;4734;52.778;6.798;2022-12-07T15:30:50;5.80;99.90
9389;DHT22;4734;52.778;6.798;2022-12-07T15:33:36;5.70;99.90
9389;DHT22;4734;52.778;6.798;2022-12-07T15:36:25;5.70;99.90
9389;DHT22;4734;52.778;6.798;2022-12-07T15:39:10;5.70;99.90
9389;DHT22;4734;52.778;6.798;2022-12-07T15:41:56;5.70;99.90
9389;DHT22;4734;52.778;6.798;2022-12-07T15:44:42;5.70;99.90
9389;DHT22;4734;52.778;6.798;2022-12-07T15:47:45;5.60;99.90
9389;DHT22;4734;52.778;6.798;2022-12-07T15:50:31;5.60;99.90
9389;DHT22;4734;52.778;6.798;2022-12-07T15:53:18;5.60;99.90
9389;DHT22;4734;52.778;6.798;2022-12-07T15:56:06;5.50;99.90
9389;DHT22;4734;52.778;6.798;2022-12-07T15:58:52;5.50;99.90
9389;DHT22;4734;52.778;6.798;2022-12-07T16:01:38;5.40;99.90
9389;DHT22;4734;52.778;6.798;2022-12-07T16:04:23;5.40;99.90
9389;DHT22;4734;52.778;6.798;2022-12-07T16:07:09;5.40;99.90
9389;DHT22;4734;52.778;6.798;2022-12-07T16:09:57;5.40;99.90
9389;DHT22;4734;52.778;6.798;2022-12-07T16:12:42;5.40;99.90
9389;DHT22;4734;52.778;6.798;2022-12-07T16:15:28;5.30;99.90
9389;DHT22;4734;52.778;6.798;2022-12-07T16:18:13;5.30;99.90
9389;DHT22;4734;52.778;6.798;2022-12-07T16:20:59;5.30;99.90
9389;DHT22;4734;52.778;6.798;2022-12-07T16:23:45;5.30;99.90
9389;DHT22;4734;52.778;6.798;2022-12-07T16:26:32;5.30;99.90
9389;DHT22;4734;52.778;6.798;2022-12-07T16:29:18;5.20;99.90
9389;DHT22;4734;52.778;6.798;2022-12-07T16:32:04;5.20;99.90
9389;DHT22;4734;52.778;6.798;2022-12-07T16:34:49;5.20;99.90
9389;DHT22;4734;52.778;6.798;2022-12-07T16:37:35;5.10;99.90
9389;DHT22;4734;52.778;6.798;2022-12-07T16:40:20;5.10;99.90
9389;DHT22;4734;52.778;6.798;2022-12-07T16:43:08;5.10;99.90
9389;DHT22;4734;52.778;6.798;2022-12-07T16:45:54;5.10;99.90
9389;DHT22;4734;52.778;6.798;2022-12-07T16:48:40;5.10;99.90
9389;DHT22;4734;52.778;6.798;2022-12-07T16:51:25;5.10;99.90
9389;DHT22;4734;52.778;6.798;2022-12-07T16:54:12;5.00;99.90
9389;DHT22;4734;52.778;6.798;2022-12-07T16:56:57;5.00;99.90
9389;DHT22;4734;52.778;6.798;2022-12-07T16:59:44;5.00;99.90
9389;DHT22;4734;52.778;6.798;2022-12-07T17:02:30;5.00;99.90
9389;DHT22;4734;52.778;6.798;2022-12-07T17:05:16;5.00;99.90
9389;DHT22;4734;52.778;6.798;2022-12-07T17:08:02;5.00;99.90
9389;DHT22;4734;52.778;6.798;2022-12-07T17:10:47;5.00;99.90
9389;DHT22;4734;52.778;6.798;2022-12-07T17:13:33;5.00;99.90
9389;DHT22;4734;52.778;6.798;2022-12-07T17:16:38;5.00;99.90
9389;DHT22;4734;52.778;6.798;2022-12-07T17:19:23;4.90;99.90
9389;DHT22;4734;52.778;6.798;2022-12-07T17:22:09;4.90;99.90
9389;DHT22;4734;52.778;6.798;2022-12-07T17:24:56;4.90;99.90
9389;DHT22;4734;52.778;6.798;2022-12-07T17:27:42;4.90;99.90
9389;DHT22;4734;52.778;6.798;2022-12-07T17:30:28;4.90;99.90
9389;DHT22;4734;52.778;6.798;2022-12-07T17:33:15;4.90;99.90
9389;DHT22;4734;52.778;6.798;2022-12-07T17:36:01;4.90;99.90
9389;DHT22;4734;52.778;6.798;2022-12-07T17:38:54;4.90;99.90
9389;DHT22;4734;52.778;6.798;2022-12-07T17:41:39;4.90;99.90
9389;DHT22;4734;52.778;6.798;2022-12-07T17:44:42;4.80;99.90
9389;DHT22;4734;52.778;6.798;2022-12-07T17:47:28;4.80;99.90
9389;DHT22;4734;52.778;6.798;2022-12-07T17:50:15;4.90;99.90
9389;DHT22;4734;52.778;6.798;2022-12-07T17:53:20;4.80;99.90
9389;DHT22;4734;52.778;6.798;2022-12-07T17:56:05;4.80;99.90
9389;DHT22;4734;52.778;6.798;2022-12-07T17:58:51;4.80;99.90
9389;DHT22;4734;52.778;6.798;2022-12-07T18:01:37;4.70;99.90
9389;DHT22;4734;52.778;6.798;2022-12-07T18:04:22;4.70;99.90
9389;DHT22;4734;52.778;6.798;2022-12-07T18:07:09;4.70;99.90
9389;DHT22;4734;52.778;6.798;2022-12-07T18:09:54;4.70;99.90
9389;DHT22;4734;52.778;6.798;2022-12-07T18:12:40;4.70;99.90
9389;DHT22;4734;52.778;6.798;2022-12-07T18:15:26;4.70;99.90
9389;DHT22;4734;52.778;6.798;2022-12-07T18:18:11;4.60;99.90
9389;DHT22;4734;52.778;6.798;2022-12-07T18:20:57;4.60;99.90
9389;DHT22;4734;52.778;6.798;2022-12-07T18:23:45;4.60;99.90
9389;DHT22;4734;52.778;6.798;2022-12-07T18:26:33;4.60;99.90
9389;DHT22;4734;52.778;6.798;2022-12-07T18:29:20;4.60;99.90
9389;DHT22;4734;52.778;6.798;2022-12-07T18:32:06;4.60;99.90
9389;DHT22;4734;52.778;6.798;2022-12-07T18:34:51;4.60;99.90
9389;DHT22;4734;52.778;6.798;2022-12-07T18:37:37;4.60;99.90
9389;DHT22;4734;52.778;6.798;2022-12-07T18:40:24;4.60;99.90
9389;DHT22;4734;52.778;6.798;2022-12-07T18:43:10;4.60;99.90
9389;DHT22;4734;52.778;6.798;2022-12-07T18:45:55;4.60;99.90
9389;DHT22;4734;52.778;6.798;2022-12-07T18:48:41;4.50;99.90
9389;DHT22;4734;52.778;6.798;2022-12-07T18:51:27;4.60;99.90